Time;durP1;ratioP1;P1;durP2;ratioP2;P2;SDS_P1;SDS_P2;PMS_P1;PMS_P2;Temp;Humidity;BMP_temperature;BMP_pressure;BME280_temperature;BME280_humidity;BME280_pressure;Samples;Min_cycle;Max_cycle;Signal;HPM_P1;HPM_P2
2023/05/22 00:02:58;;;;;;;;;;;20.30;54.70;;;;;;10328903;28;869;-75
2023/05/22 00:07:53;;;;;;;;;;;20.40;54.80;;;;;;10328582;28;825;-74
2023/05/22 00:12:49;;;;;;;;;;;20.30;54.70;;;;;;10329220;28;1957;-74
2023/05/22 00:17:44;;;;;;;;;;;20.40;54.80;;;;;;10328253;28;900;-74
2023/05/22 00:22:40;;;;;;;;;;;20.40;54.70;;;;;;10327907;28;886;-75
2023/05/22 00:27:35;;;;;;;;;;;20.30;54.70;;;;;;10327787;28;853;-74
2023/05/22 00:32:30;;;;;;;;;;;20.30;54.70;;;;;;10328194;28;894;-75
2023/05/22 00:37:26;;;;;;;;;;;20.30;54.60;;;;;;10327956;28;1965;-74
2023/05/22 00:42:21;;;;;;;;;;;20.30;54.60;;;;;;10327897;28;849;-74
2023/05/22 00:47:16;;;;;;;;;;;20.30;54.60;;;;;;10327663;28;913;-74
2023/05/22 00:52:12;;;;;;;;;;;20.30;54.60;;;;;;10326877;28;939;-74
2023/05/22 00:57:07;;;;;;;;;;;20.30;54.60;;;;;;10327200;28;1914;-74
2023/05/22 01:02:03;;;;;;;;;;;20.30;54.60;;;;;;10326553;28;856;-74
2023/05/22 01:07:01;;;;;;;;;;;20.40;54.70;;;;;;10325783;28;921;-74
2023/05/22 01:11:57;;;;;;;;;;;20.30;54.60;;;;;;10326673;28;866;-74
2023/05/22 01:16:53;;;;;;;;;;;20.30;54.60;;;;;;10326576;28;1965;-74
2023/05/22 01:21:48;;;;;;;;;;;20.30;54.60;;;;;;10325982;28;837;-75
2023/05/22 01:26:44;;;;;;;;;;;20.30;54.60;;;;;;10325852;28;904;-74
2023/05/22 01:31:39;;;;;;;;;;;20.30;54.60;;;;;;10325706;28;862;-74
2023/05/22 01:36:34;;;;;;;;;;;20.30;54.60;;;;;;10326247;28;1902;-74
2023/05/22 01:41:30;;;;;;;;;;;20.30;55.10;;;;;;10325519;28;784;-74
2023/05/22 01:46:25;;;;;;;;;;;20.30;54.60;;;;;;10325964;28;880;-74
2023/05/22 01:51:21;;;;;;;;;;;20.30;54.60;;;;;;10326352;28;950;-74
2023/05/22 01:56:16;;;;;;;;;;;20.30;54.60;;;;;;10325076;28;1910;-74
2023/05/22 02:01:11;;;;;;;;;;;20.30;54.60;;;;;;10325686;28;856;-74
2023/05/22 02:06:07;;;;;;;;;;;20.30;54.50;;;;;;10325345;28;993;-74
2023/05/22 02:11:02;;;;;;;;;;;20.30;54.60;;;;;;10324937;28;927;-74
2023/05/22 02:15:57;;;;;;;;;;;20.30;54.50;;;;;;10324957;28;1902;-74
2023/05/22 02:20:53;;;;;;;;;;;20.30;54.60;;;;;;10326938;28;841;-74
2023/05/22 02:25:48;;;;;;;;;;;20.30;54.60;;;;;;10332150;28;1014;-74
2023/05/22 02:30:43;;;;;;;;;;;20.30;54.60;;;;;;10332377;28;758;-74
2023/05/22 02:35:39;;;;;;;;;;;20.30;54.60;;;;;;10332423;28;1971;-74
2023/05/22 02:40:35;;;;;;;;;;;20.30;54.60;;;;;;10331447;28;747;-74
2023/05/22 02:45:30;;;;;;;;;;;20.20;54.50;;;;;;10332482;28;807;-74
2023/05/22 02:50:25;;;;;;;;;;;20.20;54.50;;;;;;10332262;28;964;-74
2023/05/22 02:55:21;;;;;;;;;;;20.20;54.50;;;;;;10332065;28;1922;-74
2023/05/22 03:00:16;;;;;;;;;;;20.20;54.50;;;;;;10331876;28;838;-74
2023/05/22 03:05:16;;;;;;;;;;;20.20;54.50;;;;;;10332325;28;884;-74
2023/05/22 03:10:11;;;;;;;;;;;20.20;54.50;;;;;;10331479;28;863;-74
2023/05/22 03:15:07;;;;;;;;;;;20.20;54.50;;;;;;10330614;28;1910;-74
2023/05/22 03:20:04;;;;;;;;;;;20.20;54.50;;;;;;10331147;28;872;-74
2023/05/22 03:24:59;;;;;;;;;;;20.20;54.50;;;;;;10330969;28;957;-74
2023/05/22 03:29:54;;;;;;;;;;;20.20;54.50;;;;;;10330795;28;899;-74
2023/05/22 03:34:50;;;;;;;;;;;20.20;54.50;;;;;;10328436;28;1914;-74
2023/05/22 03:39:45;;;;;;;;;;;20.20;54.50;;;;;;10330403;28;974;-74
2023/05/22 03:44:41;;;;;;;;;;;20.20;54.60;;;;;;10330139;28;867;-74
2023/05/22 03:49:36;;;;;;;;;;;20.10;54.50;;;;;;10330020;28;960;-73
2023/05/22 03:54:31;;;;;;;;;;;20.20;54.50;;;;;;10329178;28;1987;-74
2023/05/22 03:59:27;;;;;;;;;;;20.10;54.40;;;;;;10328936;28;941;-74
2023/05/22 04:04:25;;;;;;;;;;;20.10;54.50;;;;;;10328299;28;1050;-74
2023/05/22 04:09:21;;;;;;;;;;;20.10;54.50;;;;;;10328614;28;826;-74
2023/05/22 04:14:16;;;;;;;;;;;20.10;54.50;;;;;;10329150;28;1914;-74
2023/05/22 04:19:12;;;;;;;;;;;20.10;54.40;;;;;;10328847;28;877;-74
2023/05/22 04:24:08;;;;;;;;;;;20.10;55.00;;;;;;10327969;28;860;-74
2023/05/22 04:29:05;;;;;;;;;;;20.10;54.50;;;;;;10327840;28;858;-74
2023/05/22 04:34:00;;;;;;;;;;;20.10;54.40;;;;;;10327379;28;1910;-76
2023/05/22 04:38:55;;;;;;;;;;;20.10;54.40;;;;;;10327578;28;786;-71
2023/05/22 04:43:51;;;;;;;;;;;20.20;54.50;;;;;;10326912;28;809;-69
2023/05/22 04:48:47;;;;;;;;;;;20.20;54.60;;;;;;10327035;28;801;-67
2023/05/22 04:53:42;;;;;;;;;;;20.20;54.70;;;;;;10326178;28;1969;-69
2023/05/22 04:58:39;;;;;;;;;;;20.20;54.90;;;;;;10326682;28;859;-69
2023/05/22 05:03:34;;;;;;;;;;;20.20;54.90;;;;;;10326053;28;966;-71
2023/05/22 05:08:30;;;;;;;;;;;20.20;54.90;;;;;;10325750;28;820;-69
2023/05/22 05:13:25;;;;;;;;;;;20.30;54.90;;;;;;10326723;28;1906;-72
2023/05/22 05:18:20;;;;;;;;;;;20.30;54.90;;;;;;10326692;28;929;-70
2023/05/22 05:23:16;;;;;;;;;;;20.30;54.90;;;;;;10325982;28;771;-70
2023/05/22 05:28:11;;;;;;;;;;;20.30;55.60;;;;;;10325914;28;854;-69
2023/05/22 05:33:07;;;;;;;;;;;20.30;55.10;;;;;;10325018;28;1965;-68
2023/05/22 05:38:02;;;;;;;;;;;20.30;55.00;;;;;;10326197;28;1327;-75
2023/05/22 05:42:58;;;;;;;;;;;20.30;55.00;;;;;;10325477;28;876;-75
2023/05/22 05:47:53;;;;;;;;;;;20.30;55.00;;;;;;10326006;28;892;-75
2023/05/22 05:52:48;;;;;;;;;;;20.30;55.10;;;;;;10326089;28;893;-75
2023/05/22 05:57:44;;;;;;;;;;;20.30;55.10;;;;;;10330102;28;1938;-76
2023/05/22 06:02:40;;;;;;;;;;;20.30;55.10;;;;;;10334130;28;892;-72
2023/05/22 06:07:38;;;;;;;;;;;20.30;55.20;;;;;;10333340;28;956;-74
2023/05/22 06:12:34;;;;;;;;;;;20.30;55.30;;;;;;10333159;28;875;-75
2023/05/22 06:17:30;;;;;;;;;;;20.30;55.40;;;;;;10333501;28;1902;-83
2023/05/22 06:22:25;;;;;;;;;;;20.30;55.50;;;;;;10332903;28;880;-83
2023/05/22 06:27:21;;;;;;;;;;;20.30;55.50;;;;;;10333516;28;925;-74
2023/05/22 06:32:17;;;;;;;;;;;20.30;55.50;;;;;;10332523;28;825;-74
2023/05/22 06:37:12;;;;;;;;;;;20.30;55.40;;;;;;10331642;28;1965;-74
2023/05/22 06:42:07;;;;;;;;;;;20.40;55.40;;;;;;10332235;28;841;-74
2023/05/22 06:47:03;;;;;;;;;;;20.40;55.20;;;;;;10331807;28;792;-74
2023/05/22 06:51:58;;;;;;;;;;;20.40;55.10;;;;;;10332502;28;875;-74
2023/05/22 06:56:53;;;;;;;;;;;20.40;54.90;;;;;;10331536;28;1976;-74
2023/05/22 07:01:49;;;;;;;;;;;20.40;54.80;;;;;;10330688;28;702;-74
2023/05/22 07:06:45;;;;;;;;;;;20.50;54.90;;;;;;10331381;28;970;-74
2023/05/22 07:11:42;;;;;;;;;;;20.50;54.80;;;;;;10330895;28;873;-74
2023/05/22 07:16:37;;;;;;;;;;;20.50;54.80;;;;;;10330690;28;1981;-73
2023/05/22 07:21:34;;;;;;;;;;;20.40;54.80;;;;;;10329980;28;818;-74
2023/05/22 07:26:29;;;;;;;;;;;20.50;54.80;;;;;;10331001;28;873;-74
2023/05/22 07:31:25;;;;;;;;;;;20.40;54.70;;;;;;10330208;28;795;-74
2023/05/22 07:36:20;;;;;;;;;;;20.40;54.80;;;;;;10330092;28;1898;-73
2023/05/22 07:41:15;;;;;;;;;;;20.40;54.80;;;;;;10329214;28;979;-74
2023/05/22 07:46:11;;;;;;;;;;;20.40;55.00;;;;;;10329867;28;869;-73
2023/05/22 07:51:06;;;;;;;;;;;20.40;55.10;;;;;;10330017;28;826;-74
2023/05/22 07:56:02;;;;;;;;;;;20.40;55.00;;;;;;10329628;28;1914;-74
2023/05/22 08:00:57;;;;;;;;;;;20.50;55.00;;;;;;10329036;28;778;-74
2023/05/22 08:05:52;;;;;;;;;;;20.50;54.90;;;;;;10328893;28;1116;-74
2023/05/22 08:10:48;;;;;;;;;;;20.50;54.80;;;;;;10328728;28;785;-74
2023/05/22 08:15:43;;;;;;;;;;;20.50;54.80;;;;;;10328431;28;1956;-74
2023/05/22 08:20:39;;;;;;;;;;;20.50;54.80;;;;;;10327530;28;834;-73
2023/05/22 08:25:34;;;;;;;;;;;20.50;54.80;;;;;;10328062;28;854;-73
2023/05/22 08:30:30;;;;;;;;;;;20.50;54.80;;;;;;10325927;28;1062;-73
2023/05/22 08:35:25;;;;;;;;;;;20.50;54.70;;;;;;10327669;28;1902;-72
2023/05/22 08:40:21;;;;;;;;;;;20.50;54.70;;;;;;10326397;28;1176;-73
2023/05/22 08:45:18;;;;;;;;;;;20.50;54.70;;;;;;10327192;28;840;-73
2023/05/22 08:50:14;;;;;;;;;;;20.50;54.80;;;;;;10326965;28;882;-73
2023/05/22 08:55:09;;;;;;;;;;;20.50;54.80;;;;;;10326867;28;1979;-73
2023/05/22 09:00:04;;;;;;;;;;;20.50;54.80;;;;;;10326068;28;869;-73
2023/05/22 09:05:00;;;;;;;;;;;20.50;54.80;;;;;;10326487;28;825;-73
2023/05/22 09:09:56;;;;;;;;;;;20.50;54.80;;;;;;10327003;28;854;-73
2023/05/22 09:14:52;;;;;;;;;;;20.50;54.80;;;;;;10326093;28;1910;-73
2023/05/22 09:19:47;;;;;;;;;;;20.50;54.80;;;;;;10326739;28;854;-73
2023/05/22 09:24:42;;;;;;;;;;;20.50;54.80;;;;;;10323926;28;995;-73
2023/05/22 09:29:38;;;;;;;;;;;20.50;54.80;;;;;;10325443;28;768;-73
2023/05/22 09:34:34;;;;;;;;;;;20.60;54.80;;;;;;10325011;28;1969;-73
2023/05/22 09:39:29;;;;;;;;;;;20.60;54.90;;;;;;10325554;28;970;-72
2023/05/22 09:44:25;;;;;;;;;;;20.60;54.90;;;;;;10326036;28;869;-79
2023/05/22 09:49:21;;;;;;;;;;;20.60;54.90;;;;;;10325419;28;950;-73
2023/05/22 09:54:16;;;;;;;;;;;20.50;55.00;;;;;;10325241;28;1918;-73
2023/05/22 09:59:11;;;;;;;;;;;20.60;55.10;;;;;;10325192;28;957;-73
2023/05/22 10:04:07;;;;;;;;;;;20.50;55.00;;;;;;10325765;28;840;-73
2023/05/22 10:09:03;;;;;;;;;;;20.60;55.20;;;;;;10325067;28;790;-73
2023/05/22 10:14:00;;;;;;;;;;;20.60;55.00;;;;;;10324863;28;1963;-73
2023/05/22 10:18:55;;;;;;;;;;;20.60;54.90;;;;;;10324837;28;787;-73
2023/05/22 10:23:51;;;;;;;;;;;20.60;54.80;;;;;;10324804;28;915;-73
2023/05/22 10:28:46;;;;;;;;;;;20.60;55.00;;;;;;10325388;28;941;-76
2023/05/22 10:33:42;;;;;;;;;;;20.60;55.00;;;;;;10324515;28;1914;-72
2023/05/22 10:38:37;;;;;;;;;;;20.60;55.10;;;;;;10324408;28;1309;-73
2023/05/22 10:43:32;;;;;;;;;;;20.60;55.00;;;;;;10327862;28;1022;-72
2023/05/22 10:48:28;;;;;;;;;;;20.60;54.90;;;;;;10331767;28;801;-72
2023/05/22 10:53:23;;;;;;;;;;;20.60;54.90;;;;;;10331488;28;1909;-73
2023/05/22 10:58:19;;;;;;;;;;;20.60;55.10;;;;;;10331396;28;913;-73
2023/05/22 11:03:14;;;;;;;;;;;20.60;55.00;;;;;;10331282;28;918;-72
2023/05/22 11:08:09;;;;;;;;;;;20.60;55.00;;;;;;10330433;28;941;-73
2023/05/22 11:13:05;;;;;;;;;;;20.60;55.00;;;;;;10331529;28;794;-73
2023/05/22 11:18:00;;;;;;;;;;;20.60;54.90;;;;;;10331387;28;1943;-73
2023/05/22 11:22:56;;;;;;;;;;;20.60;55.10;;;;;;10330596;28;912;-73
2023/05/22 11:27:51;;;;;;;;;;;20.60;55.10;;;;;;10330931;28;846;-73
2023/05/22 11:32:46;;;;;;;;;;;20.60;55.10;;;;;;10330796;28;872;-73
2023/05/22 11:37:42;;;;;;;;;;;20.60;55.80;;;;;;10330957;28;1902;-73
2023/05/22 11:42:37;;;;;;;;;;;20.60;55.10;;;;;;10327132;28;1010;-72
2023/05/22 11:47:33;;;;;;;;;;;20.60;55.10;;;;;;10329790;28;869;-72
2023/05/22 11:52:28;;;;;;;;;;;20.60;55.10;;;;;;10328966;28;996;-73
2023/05/22 11:57:23;;;;;;;;;;;20.50;55.00;;;;;;10328682;28;1977;-73
2023/05/22 12:02:19;;;;;;;;;;;20.60;55.00;;;;;;10329090;28;882;-73
2023/05/22 12:07:14;;;;;;;;;;;20.60;55.10;;;;;;10328899;28;860;-70
2023/05/22 12:12:13;;;;;;;;;;;20.60;55.10;;;;;;10328656;28;778;-72
2023/05/22 12:17:08;;;;;;;;;;;20.60;55.30;;;;;;10328383;28;1902;-71
2023/05/22 12:22:04;;;;;;;;;;;20.60;55.50;;;;;;10328229;28;963;-70
2023/05/22 12:27:00;;;;;;;;;;;20.60;55.40;;;;;;10328016;28;809;-71
2023/05/22 12:31:55;;;;;;;;;;;20.60;55.30;;;;;;10327839;28;750;-73
2023/05/22 12:36:50;;;;;;;;;;;20.60;55.30;;;;;;10328098;28;1968;-67
2023/05/22 12:41:46;;;;;;;;;;;20.60;55.60;;;;;;10327445;28;880;-67
2023/05/22 12:46:42;;;;;;;;;;;20.60;55.50;;;;;;10327631;28;1053;-68
2023/05/22 12:51:38;;;;;;;;;;;20.60;55.70;;;;;;10327072;28;805;-67
2023/05/22 12:56:33;;;;;;;;;;;20.60;56.20;;;;;;10326564;28;1910;-68
2023/05/22 13:01:28;;;;;;;;;;;20.60;55.80;;;;;;10326378;28;909;-67
2023/05/22 13:06:25;;;;;;;;;;;20.60;55.70;;;;;;10325991;28;868;-68
2023/05/22 13:11:22;;;;;;;;;;;20.60;55.70;;;;;;10326040;28;882;-68
2023/05/22 13:16:17;;;;;;;;;;;20.60;55.70;;;;;;10326476;28;1909;-67
2023/05/22 13:21:13;;;;;;;;;;;20.50;55.60;;;;;;10325971;28;849;-69
2023/05/22 13:26:08;;;;;;;;;;;20.50;55.70;;;;;;10325727;28;941;-70
2023/05/22 13:31:03;;;;;;;;;;;20.50;55.80;;;;;;10326177;28;777;-70
2023/05/22 13:35:59;;;;;;;;;;;20.50;55.70;;;;;;10325407;28;1898;-70
2023/05/22 13:40:54;;;;;;;;;;;20.60;55.80;;;;;;10325931;28;834;-70
2023/05/22 13:45:49;;;;;;;;;;;20.60;55.80;;;;;;10325534;28;758;-70
2023/05/22 13:50:45;;;;;;;;;;;20.60;55.90;;;;;;10325040;28;1071;-70
2023/05/22 13:55:40;;;;;;;;;;;20.50;55.80;;;;;;10325013;28;1909;-70
2023/05/22 14:00:36;;;;;;;;;;;20.50;55.80;;;;;;10326175;28;943;-70
2023/05/22 14:05:31;;;;;;;;;;;20.50;55.80;;;;;;10322327;28;1153;-70
2023/05/22 14:10:26;;;;;;;;;;;20.50;55.80;;;;;;10324841;28;790;-70
2023/05/22 14:15:22;;;;;;;;;;;20.50;55.80;;;;;;10324474;28;1960;-70
2023/05/22 14:20:17;;;;;;;;;;;20.60;55.90;;;;;;10332147;28;801;-70
2023/05/22 14:25:12;;;;;;;;;;;20.50;55.80;;;;;;10332943;28;870;-70
2023/05/22 14:30:12;;;;;;;;;;;20.50;56.40;;;;;;10332628;28;779;-70
2023/05/22 14:35:07;;;;;;;;;;;20.50;55.80;;;;;;10331600;28;1952;-69
2023/05/22 14:40:02;;;;;;;;;;;20.50;55.80;;;;;;10331637;28;877;-69
2023/05/22 14:44:58;;;;;;;;;;;20.50;55.80;;;;;;10332627;28;869;-70
2023/05/22 14:49:53;;;;;;;;;;;20.60;55.90;;;;;;10332398;28;810;-70
2023/05/22 14:54:49;;;;;;;;;;;20.60;55.90;;;;;;10332297;28;1910;-70
2023/05/22 14:59:44;;;;;;;;;;;20.60;55.90;;;;;;10331481;28;774;-70
2023/05/22 15:04:40;;;;;;;;;;;20.50;55.80;;;;;;10330695;28;861;-70
2023/05/22 15:09:35;;;;;;;;;;;20.50;55.80;;;;;;10331101;28;878;-70
2023/05/22 15:14:30;;;;;;;;;;;20.50;55.90;;;;;;10330826;28;1955;-70
2023/05/22 15:19:26;;;;;;;;;;;20.50;55.90;;;;;;10330756;28;762;-70
2023/05/22 15:24:21;;;;;;;;;;;20.50;56.00;;;;;;10330317;28;829;-70
2023/05/22 15:29:16;;;;;;;;;;;20.50;56.00;;;;;;10329659;28;872;-70
2023/05/22 15:34:12;;;;;;;;;;;20.50;56.00;;;;;;10330374;28;1901;-70
2023/05/22 15:39:07;;;;;;;;;;;20.50;56.10;;;;;;10329629;28;817;-70
2023/05/22 15:44:03;;;;;;;;;;;20.50;56.10;;;;;;10329866;28;963;-70
2023/05/22 15:48:58;;;;;;;;;;;20.50;56.20;;;;;;10330282;28;766;-68
2023/05/22 15:53:53;;;;;;;;;;;20.50;56.20;;;;;;10329657;28;1910;-68
2023/05/22 15:58:49;;;;;;;;;;;20.50;56.20;;;;;;10328750;28;841;-70
2023/05/22 16:03:44;;;;;;;;;;;20.50;56.20;;;;;;10329083;28;898;-67
2023/05/22 16:08:40;;;;;;;;;;;20.50;56.30;;;;;;10326395;28;1136;-68
2023/05/22 16:13:36;;;;;;;;;;;20.50;56.50;;;;;;10328561;28;1898;-69
2023/05/22 16:18:31;;;;;;;;;;;20.50;56.60;;;;;;10328525;28;829;-69
2023/05/22 16:23:26;;;;;;;;;;;20.50;56.40;;;;;;10328822;28;809;-67
2023/05/22 16:28:22;;;;;;;;;;;20.50;56.50;;;;;;10328697;28;884;-68
2023/05/22 16:33:17;;;;;;;;;;;20.50;56.70;;;;;;10327902;28;789;-69
2023/05/22 16:38:13;;;;;;;;;;;20.50;56.50;;;;;;10327887;28;1946;-69
2023/05/22 16:43:12;;;;;;;;;;;20.50;56.40;;;;;;10326867;28;937;-69
2023/05/22 16:48:08;;;;;;;;;;;20.50;56.40;;;;;;10327862;28;933;-69
2023/05/22 16:53:03;;;;;;;;;;;20.50;56.30;;;;;;10327094;28;772;-69
2023/05/22 16:57:58;;;;;;;;;;;20.50;56.40;;;;;;10326848;28;1910;-69
2023/05/22 17:02:54;;;;;;;;;;;20.50;56.30;;;;;;10326531;28;1003;-69
2023/05/22 17:07:50;;;;;;;;;;;20.50;56.40;;;;;;10326508;28;905;-69
2023/05/22 17:12:45;;;;;;;;;;;20.50;56.40;;;;;;10326563;28;896;-69
2023/05/22 17:17:41;;;;;;;;;;;20.50;56.30;;;;;;10326121;28;1953;-70
2023/05/22 17:22:36;;;;;;;;;;;20.50;56.30;;;;;;10326946;28;996;-69
2023/05/22 17:27:31;;;;;;;;;;;20.50;56.90;;;;;;10326591;28;802;-69
2023/05/22 17:32:27;;;;;;;;;;;20.50;56.70;;;;;;10325936;28;766;-69
2023/05/22 17:37:22;;;;;;;;;;;20.50;56.50;;;;;;10325071;28;1963;-69
2023/05/22 17:42:17;;;;;;;;;;;20.50;56.60;;;;;;10326244;28;825;-69
2023/05/22 17:47:13;;;;;;;;;;;20.50;56.70;;;;;;10326181;28;877;-69
2023/05/22 17:52:08;;;;;;;;;;;20.50;56.60;;;;;;10324582;28;810;-69
2023/05/22 17:57:04;;;;;;;;;;;20.50;56.60;;;;;;10325234;28;1976;-69
2023/05/22 18:01:59;;;;;;;;;;;20.50;56.60;;;;;;10325874;28;771;-69
2023/05/22 18:06:55;;;;;;;;;;;20.50;57.20;;;;;;10325992;28;939;-69
2023/05/22 18:11:50;;;;;;;;;;;20.50;56.60;;;;;;10325672;28;852;-69
2023/05/22 18:16:45;;;;;;;;;;;20.50;56.60;;;;;;10325428;28;1965;-69
2023/05/22 18:21:42;;;;;;;;;;;20.50;56.60;;;;;;10325430;28;772;-69
2023/05/22 18:26:37;;;;;;;;;;;20.50;56.60;;;;;;10325660;28;892;-69
2023/05/22 18:31:32;;;;;;;;;;;20.50;56.60;;;;;;10324712;28;938;-69
2023/05/22 18:36:28;;;;;;;;;;;20.50;56.70;;;;;;10324598;28;1975;-69
2023/05/22 18:41:23;;;;;;;;;;;20.60;56.70;;;;;;10324516;28;932;-69
2023/05/22 18:46:18;;;;;;;;;;;20.50;56.50;;;;;;10325017;28;770;-69
2023/05/22 18:51:15;;;;;;;;;;;20.50;56.60;;;;;;10324287;28;798;-69
2023/05/22 18:56:10;;;;;;;;;;;20.50;57.20;;;;;;10324120;28;1965;-69
2023/05/22 19:01:06;;;;;;;;;;;20.50;56.50;;;;;;10324726;28;868;-69
2023/05/22 19:06:01;;;;;;;;;;;20.50;56.50;;;;;;10330202;28;774;-69
2023/05/22 19:10:58;;;;;;;;;;;20.50;56.60;;;;;;10331139;28;998;-69
2023/05/22 19:15:55;;;;;;;;;;;20.50;56.80;;;;;;10330884;28;1909;-69
2023/05/22 19:20:51;;;;;;;;;;;20.50;56.70;;;;;;10330817;28;892;-69
2023/05/22 19:25:47;;;;;;;;;;;20.50;56.70;;;;;;10331263;28;873;-69
2023/05/22 19:30:43;;;;;;;;;;;20.50;56.80;;;;;;10330455;28;805;-69
2023/05/22 19:35:38;;;;;;;;;;;20.50;56.90;;;;;;10330288;28;1905;-69
2023/05/22 19:40:33;;;;;;;;;;;20.50;56.90;;;;;;10329487;28;1015;-69
2023/05/22 19:45:29;;;;;;;;;;;20.50;56.80;;;;;;10329867;28;876;-69
2023/05/22 19:50:24;;;;;;;;;;;20.50;56.70;;;;;;10330297;28;778;-69
2023/05/22 19:55:20;;;;;;;;;;;20.50;56.90;;;;;;10329437;28;1913;-68
2023/05/22 20:00:15;;;;;;;;;;;20.50;57.10;;;;;;10329921;28;887;-68
2023/05/22 20:05:13;;;;;;;;;;;20.50;57.10;;;;;;10329322;28;840;-72
2023/05/22 20:10:09;;;;;;;;;;;20.50;56.90;;;;;;10328922;28;849;-72
2023/05/22 20:15:09;;;;;;;;;;;20.50;56.80;;;;;;10327615;28;1902;-72
2023/05/22 20:20:06;;;;;;;;;;;20.60;56.90;;;;;;10328420;28;874;-72
2023/05/22 20:25:03;;;;;;;;;;;20.60;56.80;;;;;;10328398;28;925;-72
2023/05/22 20:29:59;;;;;;;;;;;20.50;56.70;;;;;;10328699;28;861;-72
2023/05/22 20:34:54;;;;;;;;;;;20.60;56.70;;;;;;10328395;28;1981;-72
2023/05/22 20:39:50;;;;;;;;;;;20.60;56.70;;;;;;10327660;28;1011;-72
2023/05/22 20:44:46;;;;;;;;;;;20.50;56.60;;;;;;10327427;28;1188;-72
2023/05/22 20:49:41;;;;;;;;;;;20.60;56.70;;;;;;10327911;28;845;-72
2023/05/22 20:54:37;;;;;;;;;;;20.60;56.70;;;;;;10327601;28;1914;-72
2023/05/22 20:59:36;;;;;;;;;;;20.60;56.60;;;;;;10327500;28;864;-72
2023/05/22 21:04:31;;;;;;;;;;;20.50;56.50;;;;;;10326665;28;958;-72
2023/05/22 21:09:27;;;;;;;;;;;20.60;56.60;;;;;;10326604;28;917;-72
2023/05/22 21:14:22;;;;;;;;;;;20.60;56.60;;;;;;10326424;28;1959;-72
2023/05/22 21:19:17;;;;;;;;;;;20.50;56.40;;;;;;10326441;28;917;-71
2023/05/22 21:24:13;;;;;;;;;;;20.60;56.50;;;;;;10326763;28;892;-71
2023/05/22 21:29:08;;;;;;;;;;;20.60;56.50;;;;;;10326576;28;846;-72
2023/05/22 21:34:03;;;;;;;;;;;20.50;56.40;;;;;;10325707;28;1968;-72
2023/05/22 21:38:59;;;;;;;;;;;20.50;56.30;;;;;;10327204;28;897;-72
2023/05/22 21:43:55;;;;;;;;;;;20.50;56.40;;;;;;10325625;28;901;-72
2023/05/22 21:48:50;;;;;;;;;;;20.50;56.30;;;;;;10326190;28;868;-72
2023/05/22 21:53:46;;;;;;;;;;;20.50;56.30;;;;;;10325417;28;1987;-72
2023/05/22 21:58:41;;;;;;;;;;;20.50;56.30;;;;;;10325379;28;845;-71
2023/05/22 22:03:37;;;;;;;;;;;20.50;56.30;;;;;;10325267;28;806;-72
2023/05/22 22:08:32;;;;;;;;;;;20.50;56.30;;;;;;10325470;28;858;-72
2023/05/22 22:13:28;;;;;;;;;;;20.50;56.30;;;;;;10325131;28;864;-72
2023/05/22 22:18:23;;;;;;;;;;;20.50;56.20;;;;;;10325815;28;1957;-72
2023/05/22 22:23:19;;;;;;;;;;;20.50;56.20;;;;;;10325490;28;904;-72
2023/05/22 22:28:14;;;;;;;;;;;20.50;56.20;;;;;;10324869;28;840;-72
2023/05/22 22:33:10;;;;;;;;;;;20.50;56.20;;;;;;10325364;28;841;-72
2023/05/22 22:38:06;;;;;;;;;;;20.50;56.20;;;;;;10326288;28;1905;-72
2023/05/22 22:43:01;;;;;;;;;;;20.50;56.10;;;;;;10332262;28;743;-72
2023/05/22 22:47:56;;;;;;;;;;;20.50;56.20;;;;;;10332583;28;873;-71
2023/05/22 22:52:52;;;;;;;;;;;20.50;56.10;;;;;;10331823;28;854;-72
2023/05/22 22:57:48;;;;;;;;;;;20.50;56.10;;;;;;10331701;28;1913;-72
2023/05/22 23:02:44;;;;;;;;;;;20.50;56.10;;;;;;10332110;28;839;-71
2023/05/22 23:07:39;;;;;;;;;;;20.50;56.10;;;;;;10331927;28;900;-71
2023/05/22 23:12:35;;;;;;;;;;;20.50;56.10;;;;;;10330533;28;921;-72
2023/05/22 23:17:30;;;;;;;;;;;20.50;56.10;;;;;;10331513;28;1906;-72
2023/05/22 23:22:25;;;;;;;;;;;20.40;56.00;;;;;;10330842;28;921;-72
2023/05/22 23:27:21;;;;;;;;;;;20.50;56.10;;;;;;10331382;28;785;-72
2023/05/22 23:32:16;;;;;;;;;;;20.50;56.10;;;;;;10330511;28;842;-72
2023/05/22 23:37:11;;;;;;;;;;;20.40;56.00;;;;;;10330147;28;1902;-71
2023/05/22 23:42:08;;;;;;;;;;;20.40;56.00;;;;;;10330690;28;816;-71
2023/05/22 23:47:04;;;;;;;;;;;20.40;56.00;;;;;;10330458;28;841;-72
2023/05/22 23:51:59;;;;;;;;;;;20.40;56.00;;;;;;10330867;28;914;-71
2023/05/22 23:56:54;;;;;;;;;;;20.40;56.00;;;;;;10330070;28;1914;-72
